sensor_id;sensor_type;location;lat;lon;timestamp;temperature;humidity
6178;DHT22;3122;48.208;11.174;2023-08-01T00:01:40;18.40;1.00
6178;DHT22;3122;48.208;11.174;2023-08-01T00:06:41;18.30;1.00
6178;DHT22;3122;48.208;11.174;2023-08-01T00:11:41;18.40;1.00
6178;DHT22;3122;48.208;11.174;2023-08-01T00:16:42;18.40;1.00
6178;DHT22;3122;48.208;11.174;2023-08-01T00:21:42;18.40;1.00
6178;DHT22;3122;48.208;11.174;2023-08-01T00:26:43;18.30;1.00
6178;DHT22;3122;48.208;11.174;2023-08-01T00:31:44;18.40;1.00
6178;DHT22;3122;48.208;11.174;2023-08-01T00:36:44;18.30;1.00
6178;DHT22;3122;48.208;11.174;2023-08-01T00:41:45;18.30;1.00
6178;DHT22;3122;48.208;11.174;2023-08-01T00:46:45;18.20;1.00
6178;DHT22;3122;48.208;11.174;2023-08-01T00:51:47;18.20;1.00
6178;DHT22;3122;48.208;11.174;2023-08-01T00:56:47;18.20;1.00
6178;DHT22;3122;48.208;11.174;2023-08-01T01:01:48;18.20;1.00
6178;DHT22;3122;48.208;11.174;2023-08-01T01:06:57;18.20;1.00
6178;DHT22;3122;48.208;11.174;2023-08-01T01:11:59;18.10;1.00
6178;DHT22;3122;48.208;11.174;2023-08-01T01:17:00;18.20;1.00
6178;DHT22;3122;48.208;11.174;2023-08-01T01:22:03;18.20;1.00
6178;DHT22;3122;48.208;11.174;2023-08-01T01:27:05;18.20;1.00
6178;DHT22;3122;48.208;11.174;2023-08-01T01:32:06;18.30;1.00
6178;DHT22;3122;48.208;11.174;2023-08-01T01:37:08;18.30;1.00
6178;DHT22;3122;48.208;11.174;2023-08-01T01:42:08;18.10;1.00
6178;DHT22;3122;48.208;11.174;2023-08-01T01:47:09;18.10;1.00
6178;DHT22;3122;48.208;11.174;2023-08-01T01:52:09;18.00;1.00
6178;DHT22;3122;48.208;11.174;2023-08-01T01:57:10;18.00;1.00
6178;DHT22;3122;48.208;11.174;2023-08-01T02:02:10;17.90;1.00
6178;DHT22;3122;48.208;11.174;2023-08-01T02:07:11;17.90;1.00
6178;DHT22;3122;48.208;11.174;2023-08-01T02:12:11;17.90;1.00
6178;DHT22;3122;48.208;11.174;2023-08-01T02:17:14;18.00;1.00
6178;DHT22;3122;48.208;11.174;2023-08-01T02:22:14;17.90;1.00
6178;DHT22;3122;48.208;11.174;2023-08-01T02:27:15;17.80;1.00
6178;DHT22;3122;48.208;11.174;2023-08-01T02:32:16;17.80;1.00
6178;DHT22;3122;48.208;11.174;2023-08-01T02:37:16;17.80;1.00
6178;DHT22;3122;48.208;11.174;2023-08-01T02:42:17;17.90;1.00
6178;DHT22;3122;48.208;11.174;2023-08-01T02:47:17;17.70;1.00
6178;DHT22;3122;48.208;11.174;2023-08-01T02:52:18;17.70;1.00
6178;DHT22;3122;48.208;11.174;2023-08-01T02:57:18;17.60;1.00
6178;DHT22;3122;48.208;11.174;2023-08-01T03:02:19;17.40;1.00
6178;DHT22;3122;48.208;11.174;2023-08-01T03:07:20;17.40;1.00
6178;DHT22;3122;48.208;11.174;2023-08-01T03:12:20;17.30;1.00
6178;DHT22;3122;48.208;11.174;2023-08-01T03:17:21;17.10;1.00
6178;DHT22;3122;48.208;11.174;2023-08-01T03:22:22;17.20;1.00
6178;DHT22;3122;48.208;11.174;2023-08-01T03:27:22;17.10;1.00
6178;DHT22;3122;48.208;11.174;2023-08-01T03:32:24;17.10;1.00
6178;DHT22;3122;48.208;11.174;2023-08-01T03:37:25;17.10;1.00
6178;DHT22;3122;48.208;11.174;2023-08-01T03:42:25;17.10;1.00
6178;DHT22;3122;48.208;11.174;2023-08-01T03:47:26;17.00;1.00
6178;DHT22;3122;48.208;11.174;2023-08-01T03:52:26;17.00;1.00
6178;DHT22;3122;48.208;11.174;2023-08-01T03:57:27;17.00;1.00
6178;DHT22;3122;48.208;11.174;2023-08-01T04:02:27;16.80;1.00
6178;DHT22;3122;48.208;11.174;2023-08-01T04:07:28;16.70;1.00
6178;DHT22;3122;48.208;11.174;2023-08-01T04:12:30;16.60;1.00
6178;DHT22;3122;48.208;11.174;2023-08-01T04:17:31;16.70;1.00
6178;DHT22;3122;48.208;11.174;2023-08-01T04:22:31;16.70;1.00
6178;DHT22;3122;48.208;11.174;2023-08-01T04:27:32;16.60;1.00
6178;DHT22;3122;48.208;11.174;2023-08-01T04:32:33;16.50;1.00
6178;DHT22;3122;48.208;11.174;2023-08-01T04:37:33;16.50;1.00
6178;DHT22;3122;48.208;11.174;2023-08-01T04:42:34;16.40;1.00
6178;DHT22;3122;48.208;11.174;2023-08-01T04:47:35;16.50;1.00
6178;DHT22;3122;48.208;11.174;2023-08-01T04:52:36;16.60;1.00
6178;DHT22;3122;48.208;11.174;2023-08-01T04:57:36;16.60;1.00
6178;DHT22;3122;48.208;11.174;2023-08-01T05:02:37;16.70;1.00
6178;DHT22;3122;48.208;11.174;2023-08-01T05:07:38;16.50;1.00
6178;DHT22;3122;48.208;11.174;2023-08-01T05:12:38;16.60;1.00
6178;DHT22;3122;48.208;11.174;2023-08-01T05:17:39;16.60;1.00
6178;DHT22;3122;48.208;11.174;2023-08-01T05:22:40;16.70;1.00
6178;DHT22;3122;48.208;11.174;2023-08-01T05:27:40;16.70;1.00
6178;DHT22;3122;48.208;11.174;2023-08-01T05:32:41;16.80;1.00
6178;DHT22;3122;48.208;11.174;2023-08-01T05:37:43;16.80;1.00
6178;DHT22;3122;48.208;11.174;2023-08-01T05:42:44;16.90;1.00
6178;DHT22;3122;48.208;11.174;2023-08-01T05:47:45;17.10;1.00
6178;DHT22;3122;48.208;11.174;2023-08-01T05:52:45;17.20;1.00
6178;DHT22;3122;48.208;11.174;2023-08-01T05:57:46;17.20;1.00
6178;DHT22;3122;48.208;11.174;2023-08-01T06:02:46;17.30;1.00
6178;DHT22;3122;48.208;11.174;2023-08-01T06:07:47;17.40;1.00
6178;DHT22;3122;48.208;11.174;2023-08-01T06:12:47;17.40;1.00
6178;DHT22;3122;48.208;11.174;2023-08-01T06:17:48;17.30;1.00
6178;DHT22;3122;48.208;11.174;2023-08-01T06:22:49;17.40;1.00
6178;DHT22;3122;48.208;11.174;2023-08-01T06:27:49;17.40;1.00
6178;DHT22;3122;48.208;11.174;2023-08-01T06:32:50;17.40;1.00
6178;DHT22;3122;48.208;11.174;2023-08-01T06:37:50;17.40;1.00
6178;DHT22;3122;48.208;11.174;2023-08-01T06:42:51;17.40;1.00
6178;DHT22;3122;48.208;11.174;2023-08-01T06:47:51;17.50;1.00
6178;DHT22;3122;48.208;11.174;2023-08-01T06:52:52;17.60;1.00
6178;DHT22;3122;48.208;11.174;2023-08-01T06:57:52;17.70;1.00
6178;DHT22;3122;48.208;11.174;2023-08-01T07:02:53;17.70;1.00
6178;DHT22;3122;48.208;11.174;2023-08-01T07:07:53;17.70;1.00
6178;DHT22;3122;48.208;11.174;2023-08-01T07:12:54;17.80;1.00
6178;DHT22;3122;48.208;11.174;2023-08-01T07:17:55;17.80;1.00
6178;DHT22;3122;48.208;11.174;2023-08-01T07:22:55;17.80;1.00
6178;DHT22;3122;48.208;11.174;2023-08-01T07:27:56;18.00;1.00
6178;DHT22;3122;48.208;11.174;2023-08-01T07:32:56;18.20;1.00
6178;DHT22;3122;48.208;11.174;2023-08-01T07:37:57;18.20;1.00
6178;DHT22;3122;48.208;11.174;2023-08-01T07:42:57;18.40;1.00
6178;DHT22;3122;48.208;11.174;2023-08-01T07:48:00;18.60;1.00
6178;DHT22;3122;48.208;11.174;2023-08-01T07:53:00;18.60;1.00
6178;DHT22;3122;48.208;11.174;2023-08-01T07:58:01;18.60;1.00
6178;DHT22;3122;48.208;11.174;2023-08-01T08:03:02;18.60;1.00
6178;DHT22;3122;48.208;11.174;2023-08-01T08:08:03;18.60;1.00
6178;DHT22;3122;48.208;11.174;2023-08-01T08:13:03;18.80;1.00
6178;DHT22;3122;48.208;11.174;2023-08-01T08:18:04;18.70;1.00
6178;DHT22;3122;48.208;11.174;2023-08-01T08:23:05;18.60;1.00
6178;DHT22;3122;48.208;11.174;2023-08-01T08:28:05;18.70;1.00
6178;DHT22;3122;48.208;11.174;2023-08-01T08:33:06;18.60;1.00
6178;DHT22;3122;48.208;11.174;2023-08-01T08:38:07;18.60;1.00
6178;DHT22;3122;48.208;11.174;2023-08-01T08:43:07;18.60;1.00
6178;DHT22;3122;48.208;11.174;2023-08-01T08:48:12;18.60;1.00
6178;DHT22;3122;48.208;11.174;2023-08-01T08:53:13;18.60;1.00
6178;DHT22;3122;48.208;11.174;2023-08-01T08:58:16;18.60;1.00
6178;DHT22;3122;48.208;11.174;2023-08-01T09:03:16;18.80;1.00
6178;DHT22;3122;48.208;11.174;2023-08-01T09:08:21;18.80;1.00
6178;DHT22;3122;48.208;11.174;2023-08-01T09:13:22;19.10;1.00
6178;DHT22;3122;48.208;11.174;2023-08-01T09:18:22;19.20;1.00
6178;DHT22;3122;48.208;11.174;2023-08-01T09:23:24;19.20;1.00
6178;DHT22;3122;48.208;11.174;2023-08-01T09:28:25;19.20;1.00
6178;DHT22;3122;48.208;11.174;2023-08-01T09:33:38;19.20;1.00
6178;DHT22;3122;48.208;11.174;2023-08-01T09:38:39;19.20;1.00
6178;DHT22;3122;48.208;11.174;2023-08-01T09:43:40;19.30;1.00
6178;DHT22;3122;48.208;11.174;2023-08-01T09:48:42;19.50;1.00
6178;DHT22;3122;48.208;11.174;2023-08-01T09:53:55;19.60;1.00
6178;DHT22;3122;48.208;11.174;2023-08-01T09:58:56;19.20;1.00
6178;DHT22;3122;48.208;11.174;2023-08-01T10:03:58;18.00;1.00
6178;DHT22;3122;48.208;11.174;2023-08-01T10:08:59;17.30;1.00
6178;DHT22;3122;48.208;11.174;2023-08-01T10:14:02;16.80;1.00
6178;DHT22;3122;48.208;11.174;2023-08-01T10:19:04;16.60;1.00
6178;DHT22;3122;48.208;11.174;2023-08-01T10:24:06;16.60;1.00
6178;DHT22;3122;48.208;11.174;2023-08-01T10:29:07;16.60;1.00
6178;DHT22;3122;48.208;11.174;2023-08-01T10:34:13;16.70;1.00
6178;DHT22;3122;48.208;11.174;2023-08-01T10:39:21;16.60;1.00
6178;DHT22;3122;48.208;11.174;2023-08-01T10:44:22;16.70;1.00
6178;DHT22;3122;48.208;11.174;2023-08-01T10:49:43;16.80;1.00
6178;DHT22;3122;48.208;11.174;2023-08-01T10:54:44;16.90;1.00
6178;DHT22;3122;48.208;11.174;2023-08-01T10:59:45;16.90;1.00
6178;DHT22;3122;48.208;11.174;2023-08-01T11:05:01;16.80;1.00
6178;DHT22;3122;48.208;11.174;2023-08-01T11:10:11;16.90;1.00
6178;DHT22;3122;48.208;11.174;2023-08-01T11:15:13;17.20;1.00
6178;DHT22;3122;48.208;11.174;2023-08-01T11:20:14;17.40;1.00
6178;DHT22;3122;48.208;11.174;2023-08-01T11:25:14;17.40;1.00
6178;DHT22;3122;48.208;11.174;2023-08-01T11:30:15;17.40;1.00
6178;DHT22;3122;48.208;11.174;2023-08-01T11:35:17;17.20;1.00
6178;DHT22;3122;48.208;11.174;2023-08-01T11:40:19;17.00;1.00
6178;DHT22;3122;48.208;11.174;2023-08-01T11:45:20;16.70;1.00
6178;DHT22;3122;48.208;11.174;2023-08-01T11:50:25;16.50;1.00
6178;DHT22;3122;48.208;11.174;2023-08-01T11:55:27;16.60;1.00
6178;DHT22;3122;48.208;11.174;2023-08-01T12:00:28;16.90;1.00
6178;DHT22;3122;48.208;11.174;2023-08-01T12:05:29;17.00;1.00
6178;DHT22;3122;48.208;11.174;2023-08-01T12:10:37;17.20;1.00
6178;DHT22;3122;48.208;11.174;2023-08-01T12:15:38;17.30;1.00
6178;DHT22;3122;48.208;11.174;2023-08-01T12:20:38;17.40;1.00
6178;DHT22;3122;48.208;11.174;2023-08-01T12:25:39;17.70;1.00
6178;DHT22;3122;48.208;11.174;2023-08-01T12:30:40;17.80;1.00
6178;DHT22;3122;48.208;11.174;2023-08-01T12:35:41;17.90;1.00
6178;DHT22;3122;48.208;11.174;2023-08-01T12:40:42;18.00;1.00
6178;DHT22;3122;48.208;11.174;2023-08-01T12:45:43;18.20;1.00
6178;DHT22;3122;48.208;11.174;2023-08-01T12:50:44;18.20;1.00
6178;DHT22;3122;48.208;11.174;2023-08-01T12:55:49;18.20;1.00
6178;DHT22;3122;48.208;11.174;2023-08-01T13:00:50;18.40;1.00
6178;DHT22;3122;48.208;11.174;2023-08-01T13:05:51;18.30;1.00
6178;DHT22;3122;48.208;11.174;2023-08-01T13:10:53;18.20;1.00
6178;DHT22;3122;48.208;11.174;2023-08-01T13:15:55;18.60;1.00
6178;DHT22;3122;48.208;11.174;2023-08-01T13:20:59;19.10;1.00
6178;DHT22;3122;48.208;11.174;2023-08-01T13:26:00;19.50;1.00
6178;DHT22;3122;48.208;11.174;2023-08-01T13:31:02;19.40;1.00
6178;DHT22;3122;48.208;11.174;2023-08-01T13:36:03;19.30;1.00
6178;DHT22;3122;48.208;11.174;2023-08-01T13:41:03;19.30;1.00
6178;DHT22;3122;48.208;11.174;2023-08-01T13:46:15;19.10;1.00
6178;DHT22;3122;48.208;11.174;2023-08-01T13:51:16;19.00;1.00
6178;DHT22;3122;48.208;11.174;2023-08-01T13:56:17;18.80;1.00
6178;DHT22;3122;48.208;11.174;2023-08-01T14:01:18;16.50;1.00
6178;DHT22;3122;48.208;11.174;2023-08-01T14:06:20;16.10;1.00
6178;DHT22;3122;48.208;11.174;2023-08-01T14:11:20;16.10;1.00
6178;DHT22;3122;48.208;11.174;2023-08-01T14:16:21;16.10;1.00
6178;DHT22;3122;48.208;11.174;2023-08-01T14:21:21;16.40;1.00
6178;DHT22;3122;48.208;11.174;2023-08-01T14:26:22;16.60;1.00
6178;DHT22;3122;48.208;11.174;2023-08-01T14:31:23;16.80;1.00
6178;DHT22;3122;48.208;11.174;2023-08-01T14:36:23;17.40;1.00
6178;DHT22;3122;48.208;11.174;2023-08-01T14:41:24;18.00;1.00
6178;DHT22;3122;48.208;11.174;2023-08-01T14:46:24;18.60;1.00
6178;DHT22;3122;48.208;11.174;2023-08-01T14:51:25;19.10;1.00
6178;DHT22;3122;48.208;11.174;2023-08-01T14:56:26;19.40;1.00
6178;DHT22;3122;48.208;11.174;2023-08-01T15:01:26;18.90;1.00
6178;DHT22;3122;48.208;11.174;2023-08-01T15:06:27;18.60;1.00
6178;DHT22;3122;48.208;11.174;2023-08-01T15:11:27;18.50;1.00
6178;DHT22;3122;48.208;11.174;2023-08-01T15:16:28;18.00;1.00
6178;DHT22;3122;48.208;11.174;2023-08-01T15:21:28;17.80;1.00
6178;DHT22;3122;48.208;11.174;2023-08-01T15:26:29;17.50;1.00
6178;DHT22;3122;48.208;11.174;2023-08-01T15:31:30;17.70;1.00
6178;DHT22;3122;48.208;11.174;2023-08-01T15:36:31;18.10;1.00
6178;DHT22;3122;48.208;11.174;2023-08-01T15:41:31;17.90;1.00
6178;DHT22;3122;48.208;11.174;2023-08-01T15:46:33;17.90;1.00
6178;DHT22;3122;48.208;11.174;2023-08-01T15:51:34;18.40;1.00
6178;DHT22;3122;48.208;11.174;2023-08-01T15:56:34;19.00;1.00
6178;DHT22;3122;48.208;11.174;2023-08-01T16:01:36;19.30;1.00
6178;DHT22;3122;48.208;11.174;2023-08-01T16:06:36;19.20;1.00
6178;DHT22;3122;48.208;11.174;2023-08-01T16:11:37;19.40;1.00
6178;DHT22;3122;48.208;11.174;2023-08-01T16:16:37;19.50;1.00
6178;DHT22;3122;48.208;11.174;2023-08-01T16:21:38;19.80;1.00
6178;DHT22;3122;48.208;11.174;2023-08-01T16:26:39;19.80;1.00
6178;DHT22;3122;48.208;11.174;2023-08-01T16:31:39;19.90;1.00
6178;DHT22;3122;48.208;11.174;2023-08-01T16:36:40;19.90;1.00
6178;DHT22;3122;48.208;11.174;2023-08-01T16:41:40;20.20;1.00
6178;DHT22;3122;48.208;11.174;2023-08-01T16:46:41;20.10;1.00
6178;DHT22;3122;48.208;11.174;2023-08-01T16:51:41;20.20;1.00
6178;DHT22;3122;48.208;11.174;2023-08-01T16:56:42;20.40;1.00
6178;DHT22;3122;48.208;11.174;2023-08-01T17:01:42;20.20;1.00
6178;DHT22;3122;48.208;11.174;2023-08-01T17:06:43;20.50;1.00
6178;DHT22;3122;48.208;11.174;2023-08-01T17:11:43;20.10;1.00
6178;DHT22;3122;48.208;11.174;2023-08-01T17:16:44;19.90;1.00
6178;DHT22;3122;48.208;11.174;2023-08-01T17:21:45;20.30;1.00
6178;DHT22;3122;48.208;11.174;2023-08-01T17:26:45;20.30;1.00
6178;DHT22;3122;48.208;11.174;2023-08-01T17:31:46;20.30;1.00
6178;DHT22;3122;48.208;11.174;2023-08-01T17:36:46;20.50;1.00
6178;DHT22;3122;48.208;11.174;2023-08-01T17:41:47;20.40;1.00
6178;DHT22;3122;48.208;11.174;2023-08-01T17:46:48;19.90;1.00
6178;DHT22;3122;48.208;11.174;2023-08-01T17:51:48;19.50;1.00
6178;DHT22;3122;48.208;11.174;2023-08-01T17:56:49;19.00;1.00
6178;DHT22;3122;48.208;11.174;2023-08-01T18:01:50;18.90;1.00
6178;DHT22;3122;48.208;11.174;2023-08-01T18:06:53;18.60;1.00
6178;DHT22;3122;48.208;11.174;2023-08-01T18:11:53;18.50;1.00
6178;DHT22;3122;48.208;11.174;2023-08-01T18:16:54;18.20;1.00
6178;DHT22;3122;48.208;11.174;2023-08-01T18:21:55;18.10;1.00
6178;DHT22;3122;48.208;11.174;2023-08-01T18:26:55;18.10;1.00
6178;DHT22;3122;48.208;11.174;2023-08-01T18:31:56;18.00;1.00
6178;DHT22;3122;48.208;11.174;2023-08-01T18:36:56;17.70;1.00
6178;DHT22;3122;48.208;11.174;2023-08-01T18:41:57;17.60;1.00
6178;DHT22;3122;48.208;11.174;2023-08-01T18:46:57;17.60;1.00
6178;DHT22;3122;48.208;11.174;2023-08-01T18:51:58;17.50;1.00
6178;DHT22;3122;48.208;11.174;2023-08-01T18:56:58;17.40;1.00
6178;DHT22;3122;48.208;11.174;2023-08-01T19:01:59;17.30;1.00
6178;DHT22;3122;48.208;11.174;2023-08-01T19:07:01;17.30;1.00
6178;DHT22;3122;48.208;11.174;2023-08-01T19:12:10;17.30;1.00
6178;DHT22;3122;48.208;11.174;2023-08-01T19:17:10;17.20;1.00
6178;DHT22;3122;48.208;11.174;2023-08-01T19:22:11;17.10;1.00
6178;DHT22;3122;48.208;11.174;2023-08-01T19:27:12;17.10;1.00
6178;DHT22;3122;48.208;11.174;2023-08-01T19:32:12;17.10;1.00
6178;DHT22;3122;48.208;11.174;2023-08-01T19:37:13;17.20;1.00
6178;DHT22;3122;48.208;11.174;2023-08-01T19:42:13;17.10;1.00
6178;DHT22;3122;48.208;11.174;2023-08-01T19:47:14;17.10;1.00
6178;DHT22;3122;48.208;11.174;2023-08-01T19:52:15;17.10;1.00
6178;DHT22;3122;48.208;11.174;2023-08-01T19:57:15;17.00;1.00
6178;DHT22;3122;48.208;11.174;2023-08-01T20:02:16;17.10;1.00
6178;DHT22;3122;48.208;11.174;2023-08-01T20:07:16;17.00;1.00
6178;DHT22;3122;48.208;11.174;2023-08-01T20:12:17;16.90;1.00
6178;DHT22;3122;48.208;11.174;2023-08-01T20:17:18;17.00;1.00
6178;DHT22;3122;48.208;11.174;2023-08-01T20:22:20;17.00;1.00
6178;DHT22;3122;48.208;11.174;2023-08-01T20:27:20;16.90;1.00
6178;DHT22;3122;48.208;11.174;2023-08-01T20:32:21;16.90;1.00
6178;DHT22;3122;48.208;11.174;2023-08-01T20:37:22;16.80;1.00
6178;DHT22;3122;48.208;11.174;2023-08-01T20:42:23;16.80;1.00
6178;DHT22;3122;48.208;11.174;2023-08-01T20:47:24;16.70;1.00
6178;DHT22;3122;48.208;11.174;2023-08-01T20:52:25;16.70;1.00
6178;DHT22;3122;48.208;11.174;2023-08-01T20:57:25;16.70;1.00
6178;DHT22;3122;48.208;11.174;2023-08-01T21:02:26;16.60;1.00
6178;DHT22;3122;48.208;11.174;2023-08-01T21:07:28;16.50;1.00
6178;DHT22;3122;48.208;11.174;2023-08-01T21:12:29;16.40;1.00
6178;DHT22;3122;48.208;11.174;2023-08-01T21:17:29;16.30;1.00
6178;DHT22;3122;48.208;11.174;2023-08-01T21:22:30;16.30;1.00
6178;DHT22;3122;48.208;11.174;2023-08-01T21:27:30;16.20;1.00
6178;DHT22;3122;48.208;11.174;2023-08-01T21:32:31;16.10;1.00
6178;DHT22;3122;48.208;11.174;2023-08-01T21:37:31;16.00;1.00
6178;DHT22;3122;48.208;11.174;2023-08-01T21:42:32;16.00;1.00
6178;DHT22;3122;48.208;11.174;2023-08-01T21:47:33;15.90;1.00
6178;DHT22;3122;48.208;11.174;2023-08-01T21:52:34;15.80;1.00
6178;DHT22;3122;48.208;11.174;2023-08-01T21:57:34;15.70;1.00
6178;DHT22;3122;48.208;11.174;2023-08-01T22:02:35;15.80;1.00
6178;DHT22;3122;48.208;11.174;2023-08-01T22:07:35;15.70;1.00
6178;DHT22;3122;48.208;11.174;2023-08-01T22:12:37;15.60;1.00
6178;DHT22;3122;48.208;11.174;2023-08-01T22:17:38;15.70;1.00
6178;DHT22;3122;48.208;11.174;2023-08-01T22:22:39;15.60;1.00
6178;DHT22;3122;48.208;11.174;2023-08-01T22:27:40;15.60;1.00
6178;DHT22;3122;48.208;11.174;2023-08-01T22:32:40;15.50;1.00
6178;DHT22;3122;48.208;11.174;2023-08-01T22:37:41;15.50;1.00
6178;DHT22;3122;48.208;11.174;2023-08-01T22:42:42;15.50;1.00
6178;DHT22;3122;48.208;11.174;2023-08-01T22:47:42;15.40;1.00
6178;DHT22;3122;48.208;11.174;2023-08-01T22:52:43;15.50;1.00
6178;DHT22;3122;48.208;11.174;2023-08-01T22:57:43;15.40;1.00
6178;DHT22;3122;48.208;11.174;2023-08-01T23:02:44;15.40;1.00
6178;DHT22;3122;48.208;11.174;2023-08-01T23:07:45;15.40;1.00
6178;DHT22;3122;48.208;11.174;2023-08-01T23:12:45;15.40;1.00
6178;DHT22;3122;48.208;11.174;2023-08-01T23:17:46;15.40;1.00
6178;DHT22;3122;48.208;11.174;2023-08-01T23:22:46;15.30;1.00
6178;DHT22;3122;48.208;11.174;2023-08-01T23:27:47;15.30;1.00
6178;DHT22;3122;48.208;11.174;2023-08-01T23:32:47;15.30;1.00
6178;DHT22;3122;48.208;11.174;2023-08-01T23:37:49;15.30;1.00
6178;DHT22;3122;48.208;11.174;2023-08-01T23:42:50;15.20;1.00
6178;DHT22;3122;48.208;11.174;2023-08-01T23:47:50;15.20;1.00
6178;DHT22;3122;48.208;11.174;2023-08-01T23:52:51;15.20;1.00
6178;DHT22;3122;48.208;11.174;2023-08-01T23:57:51;15.00;1.00
